sensor_id;sensor_type;location;lat;lon;timestamp;P1;durP1;ratioP1;P2;durP2;ratioP2
27495;SDS011;14929;51.336;9.416;2023-09-08T00:01:26;2.80;;;2.60;;
27495;SDS011;14929;51.336;9.416;2023-09-08T00:03:54;3.50;;;3.20;;
27495;SDS011;14929;51.336;9.416;2023-09-08T00:06:21;3.45;;;2.85;;
27495;SDS011;14929;51.336;9.416;2023-09-08T00:08:49;4.75;;;2.58;;
27495;SDS011;14929;51.336;9.416;2023-09-08T00:11:17;3.05;;;2.78;;
27495;SDS011;14929;51.336;9.416;2023-09-08T00:13:44;3.60;;;3.22;;
27495;SDS011;14929;51.336;9.416;2023-09-08T00:16:14;2.60;;;2.40;;
27495;SDS011;14929;51.336;9.416;2023-09-08T00:18:41;2.85;;;2.65;;
27495;SDS011;14929;51.336;9.416;2023-09-08T00:21:09;2.47;;;2.28;;
27495;SDS011;14929;51.336;9.416;2023-09-08T00:23:37;2.70;;;2.50;;
27495;SDS011;14929;51.336;9.416;2023-09-08T00:26:04;3.17;;;2.88;;
27495;SDS011;14929;51.336;9.416;2023-09-08T00:28:32;2.78;;;2.50;;
27495;SDS011;14929;51.336;9.416;2023-09-08T00:31:00;3.20;;;2.90;;
27495;SDS011;14929;51.336;9.416;2023-09-08T00:33:29;3.28;;;2.97;;
27495;SDS011;14929;51.336;9.416;2023-09-08T00:35:56;4.30;;;3.60;;
27495;SDS011;14929;51.336;9.416;2023-09-08T00:38:24;3.58;;;2.63;;
27495;SDS011;14929;51.336;9.416;2023-09-08T00:40:52;2.92;;;2.60;;
27495;SDS011;14929;51.336;9.416;2023-09-08T00:43:20;3.63;;;3.17;;
27495;SDS011;14929;51.336;9.416;2023-09-08T00:45:47;2.90;;;2.65;;
27495;SDS011;14929;51.336;9.416;2023-09-08T00:48:15;3.45;;;3.08;;
27495;SDS011;14929;51.336;9.416;2023-09-08T00:50:45;3.15;;;2.85;;
27495;SDS011;14929;51.336;9.416;2023-09-08T00:53:13;4.03;;;3.00;;
27495;SDS011;14929;51.336;9.416;2023-09-08T00:55:41;4.90;;;2.95;;
27495;SDS011;14929;51.336;9.416;2023-09-08T00:58:09;2.90;;;2.65;;
27495;SDS011;14929;51.336;9.416;2023-09-08T01:00:37;2.67;;;2.47;;
27495;SDS011;14929;51.336;9.416;2023-09-08T01:03:05;3.00;;;2.70;;
27495;SDS011;14929;51.336;9.416;2023-09-08T01:05:32;3.35;;;2.47;;
27495;SDS011;14929;51.336;9.416;2023-09-08T01:08:02;2.95;;;2.50;;
27495;SDS011;14929;51.336;9.416;2023-09-08T01:10:30;2.80;;;2.60;;
27495;SDS011;14929;51.336;9.416;2023-09-08T01:12:58;5.30;;;2.83;;
27495;SDS011;14929;51.336;9.416;2023-09-08T01:15:25;3.45;;;3.15;;
27495;SDS011;14929;51.336;9.416;2023-09-08T01:17:53;3.22;;;2.90;;
27495;SDS011;14929;51.336;9.416;2023-09-08T01:20:22;3.10;;;2.85;;
27495;SDS011;14929;51.336;9.416;2023-09-08T01:22:55;2.67;;;2.47;;
27495;SDS011;14929;51.336;9.416;2023-09-08T01:25:39;3.10;;;2.33;;
27495;SDS011;14929;51.336;9.416;2023-09-08T01:28:08;6.32;;;3.03;;
27495;SDS011;14929;51.336;9.416;2023-09-08T01:30:38;3.58;;;2.75;;
27495;SDS011;14929;51.336;9.416;2023-09-08T01:33:06;2.88;;;2.58;;
27495;SDS011;14929;51.336;9.416;2023-09-08T01:35:34;3.83;;;2.70;;
27495;SDS011;14929;51.336;9.416;2023-09-08T01:38:01;3.47;;;3.13;;
27495;SDS011;14929;51.336;9.416;2023-09-08T01:40:29;3.00;;;2.80;;
27495;SDS011;14929;51.336;9.416;2023-09-08T01:42:58;3.03;;;2.80;;
27495;SDS011;14929;51.336;9.416;2023-09-08T01:45:26;2.88;;;2.67;;
27495;SDS011;14929;51.336;9.416;2023-09-08T01:47:54;4.03;;;3.00;;
27495;SDS011;14929;51.336;9.416;2023-09-08T01:50:22;3.50;;;3.00;;
27495;SDS011;14929;51.336;9.416;2023-09-08T01:52:49;3.20;;;2.90;;
27495;SDS011;14929;51.336;9.416;2023-09-08T01:55:17;4.47;;;3.38;;
27495;SDS011;14929;51.336;9.416;2023-09-08T01:57:45;2.75;;;2.53;;
27495;SDS011;14929;51.336;9.416;2023-09-08T02:00:15;2.55;;;2.38;;
27495;SDS011;14929;51.336;9.416;2023-09-08T02:02:43;3.70;;;2.70;;
27495;SDS011;14929;51.336;9.416;2023-09-08T02:05:11;2.90;;;2.70;;
27495;SDS011;14929;51.336;9.416;2023-09-08T02:07:38;3.38;;;2.80;;
27495;SDS011;14929;51.336;9.416;2023-09-08T02:10:06;4.15;;;3.75;;
27495;SDS011;14929;51.336;9.416;2023-09-08T02:12:35;3.20;;;2.63;;
27495;SDS011;14929;51.336;9.416;2023-09-08T02:15:03;3.97;;;3.33;;
27495;SDS011;14929;51.336;9.416;2023-09-08T02:17:35;2.85;;;2.65;;
27495;SDS011;14929;51.336;9.416;2023-09-08T02:20:03;2.70;;;2.50;;
27495;SDS011;14929;51.336;9.416;2023-09-08T02:22:32;2.80;;;2.45;;
27495;SDS011;14929;51.336;9.416;2023-09-08T02:24:59;3.30;;;2.70;;
27495;SDS011;14929;51.336;9.416;2023-09-08T02:27:26;2.65;;;2.40;;
27495;SDS011;14929;51.336;9.416;2023-09-08T02:29:54;2.50;;;2.30;;
27495;SDS011;14929;51.336;9.416;2023-09-08T02:32:22;2.75;;;2.55;;
27495;SDS011;14929;51.336;9.416;2023-09-08T02:34:51;3.20;;;3.00;;
27495;SDS011;14929;51.336;9.416;2023-09-08T02:37:19;4.07;;;3.30;;
27495;SDS011;14929;51.336;9.416;2023-09-08T02:39:46;4.30;;;3.42;;
27495;SDS011;14929;51.336;9.416;2023-09-08T02:42:14;3.03;;;2.75;;
27495;SDS011;14929;51.336;9.416;2023-09-08T02:44:42;2.72;;;2.53;;
27495;SDS011;14929;51.336;9.416;2023-09-08T02:47:09;2.78;;;2.58;;
27495;SDS011;14929;51.336;9.416;2023-09-08T02:49:37;2.90;;;2.70;;
27495;SDS011;14929;51.336;9.416;2023-09-08T02:52:06;3.80;;;2.85;;
27495;SDS011;14929;51.336;9.416;2023-09-08T02:54:33;3.40;;;3.05;;
27495;SDS011;14929;51.336;9.416;2023-09-08T02:57:01;2.85;;;2.65;;
27495;SDS011;14929;51.336;9.416;2023-09-08T02:59:28;2.95;;;2.75;;
27495;SDS011;14929;51.336;9.416;2023-09-08T03:01:56;3.25;;;2.95;;
27495;SDS011;14929;51.336;9.416;2023-09-08T03:04:25;3.78;;;3.13;;
27495;SDS011;14929;51.336;9.416;2023-09-08T03:06:52;3.10;;;2.88;;
27495;SDS011;14929;51.336;9.416;2023-09-08T03:09:23;4.00;;;3.00;;
27495;SDS011;14929;51.336;9.416;2023-09-08T03:11:50;3.95;;;2.92;;
27495;SDS011;14929;51.336;9.416;2023-09-08T03:14:18;3.22;;;3.00;;
27495;SDS011;14929;51.336;9.416;2023-09-08T03:16:46;3.10;;;2.90;;
27495;SDS011;14929;51.336;9.416;2023-09-08T03:19:13;3.08;;;2.80;;
27495;SDS011;14929;51.336;9.416;2023-09-08T03:21:41;2.65;;;2.45;;
27495;SDS011;14929;51.336;9.416;2023-09-08T03:24:09;2.75;;;2.55;;
27495;SDS011;14929;51.336;9.416;2023-09-08T03:26:38;2.60;;;2.40;;
27495;SDS011;14929;51.336;9.416;2023-09-08T03:29:06;2.75;;;2.55;;
27495;SDS011;14929;51.336;9.416;2023-09-08T03:31:33;3.55;;;2.72;;
27495;SDS011;14929;51.336;9.416;2023-09-08T03:34:01;3.00;;;2.70;;
27495;SDS011;14929;51.336;9.416;2023-09-08T03:36:28;3.45;;;3.15;;
27495;SDS011;14929;51.336;9.416;2023-09-08T03:39:00;3.13;;;2.85;;
27495;SDS011;14929;51.336;9.416;2023-09-08T03:41:28;3.03;;;2.83;;
27495;SDS011;14929;51.336;9.416;2023-09-08T03:43:57;3.00;;;2.70;;
27495;SDS011;14929;51.336;9.416;2023-09-08T03:46:25;3.22;;;2.92;;
27495;SDS011;14929;51.336;9.416;2023-09-08T03:48:53;3.42;;;2.78;;
27495;SDS011;14929;51.336;9.416;2023-09-08T03:51:25;3.10;;;2.80;;
27495;SDS011;14929;51.336;9.416;2023-09-08T03:53:53;3.33;;;3.03;;
27495;SDS011;14929;51.336;9.416;2023-09-08T03:56:22;3.20;;;2.65;;
27495;SDS011;14929;51.336;9.416;2023-09-08T03:58:49;3.35;;;3.10;;
27495;SDS011;14929;51.336;9.416;2023-09-08T04:01:19;3.03;;;2.60;;
27495;SDS011;14929;51.336;9.416;2023-09-08T04:03:46;3.78;;;3.47;;
27495;SDS011;14929;51.336;9.416;2023-09-08T04:06:14;4.10;;;2.75;;
27495;SDS011;14929;51.336;9.416;2023-09-08T04:08:41;2.97;;;2.78;;
27495;SDS011;14929;51.336;9.416;2023-09-08T04:11:09;3.35;;;3.08;;
27495;SDS011;14929;51.336;9.416;2023-09-08T04:13:37;3.03;;;2.80;;
27495;SDS011;14929;51.336;9.416;2023-09-08T04:16:04;3.58;;;3.28;;
27495;SDS011;14929;51.336;9.416;2023-09-08T04:18:33;3.45;;;3.15;;
27495;SDS011;14929;51.336;9.416;2023-09-08T04:21:01;3.40;;;3.10;;
27495;SDS011;14929;51.336;9.416;2023-09-08T04:23:28;3.97;;;3.35;;
27495;SDS011;14929;51.336;9.416;2023-09-08T04:25:56;3.33;;;2.80;;
27495;SDS011;14929;51.336;9.416;2023-09-08T04:28:24;3.17;;;2.88;;
27495;SDS011;14929;51.336;9.416;2023-09-08T04:30:51;3.60;;;3.30;;
27495;SDS011;14929;51.336;9.416;2023-09-08T04:33:19;2.90;;;2.70;;
27495;SDS011;14929;51.336;9.416;2023-09-08T04:35:48;3.58;;;3.00;;
27495;SDS011;14929;51.336;9.416;2023-09-08T04:38:16;2.80;;;2.60;;
27495;SDS011;14929;51.336;9.416;2023-09-08T04:40:44;2.85;;;2.65;;
27495;SDS011;14929;51.336;9.416;2023-09-08T04:43:12;2.45;;;2.28;;
27495;SDS011;14929;51.336;9.416;2023-09-08T04:45:40;3.13;;;2.90;;
27495;SDS011;14929;51.336;9.416;2023-09-08T04:48:07;3.03;;;2.72;;
27495;SDS011;14929;51.336;9.416;2023-09-08T04:50:35;3.05;;;2.75;;
27495;SDS011;14929;51.336;9.416;2023-09-08T04:53:04;3.13;;;2.83;;
27495;SDS011;14929;51.336;9.416;2023-09-08T04:55:32;3.40;;;3.13;;
27495;SDS011;14929;51.336;9.416;2023-09-08T04:57:59;2.80;;;2.60;;
27495;SDS011;14929;51.336;9.416;2023-09-08T05:00:27;3.35;;;3.03;;
27495;SDS011;14929;51.336;9.416;2023-09-08T05:02:55;3.13;;;2.80;;
27495;SDS011;14929;51.336;9.416;2023-09-08T05:05:22;3.35;;;3.05;;
27495;SDS011;14929;51.336;9.416;2023-09-08T05:07:50;3.55;;;3.28;;
27495;SDS011;14929;51.336;9.416;2023-09-08T05:10:22;4.93;;;3.13;;
27495;SDS011;14929;51.336;9.416;2023-09-08T05:12:50;3.00;;;2.80;;
27495;SDS011;14929;51.336;9.416;2023-09-08T05:15:18;2.53;;;2.33;;
27495;SDS011;14929;51.336;9.416;2023-09-08T05:17:46;2.45;;;2.25;;
27495;SDS011;14929;51.336;9.416;2023-09-08T05:20:14;2.63;;;2.42;;
27495;SDS011;14929;51.336;9.416;2023-09-08T05:22:42;1.70;;;1.60;;
27495;SDS011;14929;51.336;9.416;2023-09-08T05:25:09;1.98;;;1.88;;
27495;SDS011;14929;51.336;9.416;2023-09-08T05:27:38;1.73;;;1.63;;
27495;SDS011;14929;51.336;9.416;2023-09-08T05:30:06;1.70;;;1.60;;
27495;SDS011;14929;51.336;9.416;2023-09-08T05:32:35;1.88;;;1.77;;
27495;SDS011;14929;51.336;9.416;2023-09-08T05:35:03;1.48;;;1.38;;
27495;SDS011;14929;51.336;9.416;2023-09-08T05:37:31;1.88;;;1.77;;
27495;SDS011;14929;51.336;9.416;2023-09-08T05:39:59;2.08;;;1.95;;
27495;SDS011;14929;51.336;9.416;2023-09-08T05:42:26;1.83;;;1.73;;
27495;SDS011;14929;51.336;9.416;2023-09-08T05:44:56;1.80;;;1.70;;
27495;SDS011;14929;51.336;9.416;2023-09-08T05:47:23;2.20;;;2.10;;
27495;SDS011;14929;51.336;9.416;2023-09-08T05:49:51;2.47;;;2.30;;
27495;SDS011;14929;51.336;9.416;2023-09-08T05:52:18;1.77;;;1.67;;
27495;SDS011;14929;51.336;9.416;2023-09-08T05:54:46;2.47;;;2.28;;
27495;SDS011;14929;51.336;9.416;2023-09-08T05:57:14;1.90;;;1.80;;
27495;SDS011;14929;51.336;9.416;2023-09-08T05:59:41;2.35;;;2.17;;
27495;SDS011;14929;51.336;9.416;2023-09-08T06:02:10;2.40;;;2.20;;
27495;SDS011;14929;51.336;9.416;2023-09-08T06:04:38;2.78;;;2.58;;
27495;SDS011;14929;51.336;9.416;2023-09-08T06:07:06;2.85;;;2.60;;
27495;SDS011;14929;51.336;9.416;2023-09-08T06:09:33;2.47;;;2.28;;
27495;SDS011;14929;51.336;9.416;2023-09-08T06:12:01;3.58;;;2.33;;
27495;SDS011;14929;51.336;9.416;2023-09-08T06:14:29;3.42;;;3.00;;
27495;SDS011;14929;51.336;9.416;2023-09-08T06:16:56;2.13;;;1.98;;
27495;SDS011;14929;51.336;9.416;2023-09-08T06:19:25;3.90;;;2.92;;
27495;SDS011;14929;51.336;9.416;2023-09-08T06:21:53;2.70;;;2.50;;
27495;SDS011;14929;51.336;9.416;2023-09-08T06:24:34;2.60;;;2.40;;
27495;SDS011;14929;51.336;9.416;2023-09-08T06:27:02;2.10;;;1.90;;
27495;SDS011;14929;51.336;9.416;2023-09-08T06:29:30;2.13;;;1.92;;
27495;SDS011;14929;51.336;9.416;2023-09-08T06:31:58;2.50;;;2.30;;
27495;SDS011;14929;51.336;9.416;2023-09-08T06:34:27;2.17;;;1.98;;
27495;SDS011;14929;51.336;9.416;2023-09-08T06:36:54;2.33;;;2.13;;
27495;SDS011;14929;51.336;9.416;2023-09-08T06:39:25;2.60;;;2.40;;
27495;SDS011;14929;51.336;9.416;2023-09-08T06:41:52;2.03;;;1.92;;
27495;SDS011;14929;51.336;9.416;2023-09-08T06:44:20;1.98;;;1.88;;
27495;SDS011;14929;51.336;9.416;2023-09-08T06:46:48;2.83;;;2.20;;
27495;SDS011;14929;51.336;9.416;2023-09-08T06:49:15;3.08;;;2.65;;
27495;SDS011;14929;51.336;9.416;2023-09-08T06:51:45;3.47;;;2.90;;
27495;SDS011;14929;51.336;9.416;2023-09-08T06:54:14;2.85;;;2.65;;
27495;SDS011;14929;51.336;9.416;2023-09-08T06:56:41;3.88;;;2.80;;
27495;SDS011;14929;51.336;9.416;2023-09-08T06:59:09;2.63;;;2.42;;
27495;SDS011;14929;51.336;9.416;2023-09-08T07:01:37;3.95;;;3.08;;
27495;SDS011;14929;51.336;9.416;2023-09-08T07:04:04;2.85;;;2.65;;
27495;SDS011;14929;51.336;9.416;2023-09-08T07:06:32;2.72;;;2.53;;
27495;SDS011;14929;51.336;9.416;2023-09-08T07:09:03;3.38;;;3.08;;
27495;SDS011;14929;51.336;9.416;2023-09-08T07:11:31;3.72;;;3.40;;
27495;SDS011;14929;51.336;9.416;2023-09-08T07:13:58;4.35;;;3.65;;
27495;SDS011;14929;51.336;9.416;2023-09-08T07:16:26;3.90;;;3.47;;
27495;SDS011;14929;51.336;9.416;2023-09-08T07:18:53;3.00;;;2.80;;
27495;SDS011;14929;51.336;9.416;2023-09-08T07:21:21;3.20;;;2.95;;
27495;SDS011;14929;51.336;9.416;2023-09-08T07:23:48;4.55;;;3.80;;
27495;SDS011;14929;51.336;9.416;2023-09-08T07:26:18;3.70;;;3.40;;
27495;SDS011;14929;51.336;9.416;2023-09-08T07:28:45;3.70;;;3.38;;
27495;SDS011;14929;51.336;9.416;2023-09-08T07:31:14;3.35;;;3.03;;
27495;SDS011;14929;51.336;9.416;2023-09-08T07:33:41;3.53;;;3.20;;
27495;SDS011;14929;51.336;9.416;2023-09-08T07:36:09;4.60;;;4.10;;
27495;SDS011;14929;51.336;9.416;2023-09-08T07:38:38;3.75;;;3.45;;
27495;SDS011;14929;51.336;9.416;2023-09-08T07:41:06;3.78;;;3.47;;
27495;SDS011;14929;51.336;9.416;2023-09-08T07:43:35;3.50;;;3.20;;
27495;SDS011;14929;51.336;9.416;2023-09-08T07:46:05;3.65;;;3.38;;
27495;SDS011;14929;51.336;9.416;2023-09-08T07:48:33;4.05;;;3.45;;
27495;SDS011;14929;51.336;9.416;2023-09-08T07:51:00;3.97;;;3.67;;
27495;SDS011;14929;51.336;9.416;2023-09-08T07:53:28;3.58;;;3.28;;
27495;SDS011;14929;51.336;9.416;2023-09-08T07:55:56;4.05;;;3.75;;
27495;SDS011;14929;51.336;9.416;2023-09-08T07:58:23;3.70;;;3.28;;
27495;SDS011;14929;51.336;9.416;2023-09-08T08:00:52;3.45;;;3.15;;
27495;SDS011;14929;51.336;9.416;2023-09-08T08:03:19;3.67;;;3.35;;
27495;SDS011;14929;51.336;9.416;2023-09-08T08:05:47;3.80;;;3.33;;
27495;SDS011;14929;51.336;9.416;2023-09-08T08:08:14;3.78;;;3.38;;
27495;SDS011;14929;51.336;9.416;2023-09-08T08:10:42;4.03;;;3.47;;
27495;SDS011;14929;51.336;9.416;2023-09-08T08:13:10;3.70;;;3.40;;
27495;SDS011;14929;51.336;9.416;2023-09-08T08:15:40;4.43;;;3.20;;
27495;SDS011;14929;51.336;9.416;2023-09-08T08:18:09;3.80;;;3.50;;
27495;SDS011;14929;51.336;9.416;2023-09-08T08:20:37;3.65;;;3.42;;
27495;SDS011;14929;51.336;9.416;2023-09-08T08:23:05;4.75;;;4.35;;
27495;SDS011;14929;51.336;9.416;2023-09-08T08:25:33;3.80;;;3.50;;
27495;SDS011;14929;51.336;9.416;2023-09-08T08:28:01;5.00;;;3.33;;
27495;SDS011;14929;51.336;9.416;2023-09-08T08:30:29;3.65;;;3.30;;
27495;SDS011;14929;51.336;9.416;2023-09-08T08:32:57;4.32;;;3.92;;
27495;SDS011;14929;51.336;9.416;2023-09-08T08:35:26;3.83;;;3.40;;
27495;SDS011;14929;51.336;9.416;2023-09-08T08:37:53;4.15;;;3.85;;
27495;SDS011;14929;51.336;9.416;2023-09-08T08:40:23;7.47;;;4.45;;
27495;SDS011;14929;51.336;9.416;2023-09-08T08:42:54;3.92;;;3.63;;
27495;SDS011;14929;51.336;9.416;2023-09-08T08:45:22;4.82;;;4.40;;
27495;SDS011;14929;51.336;9.416;2023-09-08T08:47:51;4.40;;;3.85;;
27495;SDS011;14929;51.336;9.416;2023-09-08T08:50:19;5.25;;;4.65;;
27495;SDS011;14929;51.336;9.416;2023-09-08T08:52:48;4.28;;;3.88;;
27495;SDS011;14929;51.336;9.416;2023-09-08T08:55:16;3.40;;;3.10;;
27495;SDS011;14929;51.336;9.416;2023-09-08T08:57:44;4.88;;;4.40;;
27495;SDS011;14929;51.336;9.416;2023-09-08T09:00:12;4.10;;;3.80;;
27495;SDS011;14929;51.336;9.416;2023-09-08T09:02:43;5.35;;;4.53;;
27495;SDS011;14929;51.336;9.416;2023-09-08T09:05:14;4.82;;;4.45;;
27495;SDS011;14929;51.336;9.416;2023-09-08T09:07:42;4.40;;;4.00;;
27495;SDS011;14929;51.336;9.416;2023-09-08T09:10:11;5.15;;;4.65;;
27495;SDS011;14929;51.336;9.416;2023-09-08T09:12:39;8.23;;;4.20;;
27495;SDS011;14929;51.336;9.416;2023-09-08T09:15:07;5.22;;;4.72;;
27495;SDS011;14929;51.336;9.416;2023-09-08T09:17:36;4.80;;;4.40;;
27495;SDS011;14929;51.336;9.416;2023-09-08T09:20:14;5.43;;;4.97;;
27495;SDS011;14929;51.336;9.416;2023-09-08T09:22:43;5.03;;;4.63;;
27495;SDS011;14929;51.336;9.416;2023-09-08T09:25:18;9.00;;;4.50;;
27495;SDS011;14929;51.336;9.416;2023-09-08T09:27:52;5.57;;;4.13;;
27495;SDS011;14929;51.336;9.416;2023-09-08T09:30:20;5.93;;;4.43;;
27495;SDS011;14929;51.336;9.416;2023-09-08T09:32:48;4.72;;;4.32;;
27495;SDS011;14929;51.336;9.416;2023-09-08T09:35:24;3.80;;;3.50;;
27495;SDS011;14929;51.336;9.416;2023-09-08T09:38:07;4.93;;;3.83;;
27495;SDS011;14929;51.336;9.416;2023-09-08T09:40:36;3.67;;;3.38;;
27495;SDS011;14929;51.336;9.416;2023-09-08T09:43:05;4.72;;;4.32;;
27495;SDS011;14929;51.336;9.416;2023-09-08T09:45:33;4.05;;;3.75;;
27495;SDS011;14929;51.336;9.416;2023-09-08T09:48:02;5.28;;;4.85;;
27495;SDS011;14929;51.336;9.416;2023-09-08T09:50:30;4.32;;;3.67;;
27495;SDS011;14929;51.336;9.416;2023-09-08T09:53:00;4.13;;;3.72;;
27495;SDS011;14929;51.336;9.416;2023-09-08T09:55:34;4.40;;;4.03;;
27495;SDS011;14929;51.336;9.416;2023-09-08T09:58:05;6.07;;;4.30;;
27495;SDS011;14929;51.336;9.416;2023-09-08T10:00:35;3.90;;;3.45;;
27495;SDS011;14929;51.336;9.416;2023-09-08T10:03:04;4.35;;;4.05;;
27495;SDS011;14929;51.336;9.416;2023-09-08T10:05:32;4.03;;;3.72;;
27495;SDS011;14929;51.336;9.416;2023-09-08T10:08:00;4.35;;;4.00;;
27495;SDS011;14929;51.336;9.416;2023-09-08T10:10:28;4.32;;;4.03;;
27495;SDS011;14929;51.336;9.416;2023-09-08T10:13:02;3.72;;;3.42;;
27495;SDS011;14929;51.336;9.416;2023-09-08T10:15:31;4.20;;;3.72;;
27495;SDS011;14929;51.336;9.416;2023-09-08T10:17:59;3.90;;;3.60;;
27495;SDS011;14929;51.336;9.416;2023-09-08T10:20:31;4.50;;;3.58;;
27495;SDS011;14929;51.336;9.416;2023-09-08T10:23:02;3.33;;;3.13;;
27495;SDS011;14929;51.336;9.416;2023-09-08T10:25:43;3.85;;;3.55;;
27495;SDS011;14929;51.336;9.416;2023-09-08T10:28:20;3.47;;;3.17;;
27495;SDS011;14929;51.336;9.416;2023-09-08T10:30:48;3.55;;;3.17;;
27495;SDS011;14929;51.336;9.416;2023-09-08T10:33:16;3.75;;;3.45;;
27495;SDS011;14929;51.336;9.416;2023-09-08T10:35:45;3.97;;;3.67;;
27495;SDS011;14929;51.336;9.416;2023-09-08T10:38:22;3.13;;;2.83;;
27495;SDS011;14929;51.336;9.416;2023-09-08T10:40:51;5.38;;;3.78;;
27495;SDS011;14929;51.336;9.416;2023-09-08T10:43:20;4.07;;;3.78;;
27495;SDS011;14929;51.336;9.416;2023-09-08T10:45:47;3.42;;;3.00;;
27495;SDS011;14929;51.336;9.416;2023-09-08T10:48:15;3.83;;;3.60;;
27495;SDS011;14929;51.336;9.416;2023-09-08T10:50:42;4.07;;;3.78;;
27495;SDS011;14929;51.336;9.416;2023-09-08T10:53:12;3.08;;;2.85;;
27495;SDS011;14929;51.336;9.416;2023-09-08T10:55:42;4.32;;;3.80;;
27495;SDS011;14929;51.336;9.416;2023-09-08T10:58:30;4.07;;;3.67;;
27495;SDS011;14929;51.336;9.416;2023-09-08T11:01:01;3.88;;;3.55;;
27495;SDS011;14929;51.336;9.416;2023-09-08T11:03:42;3.33;;;3.13;;
27495;SDS011;14929;51.336;9.416;2023-09-08T11:06:16;4.25;;;3.88;;
27495;SDS011;14929;51.336;9.416;2023-09-08T11:08:46;3.10;;;2.88;;
27495;SDS011;14929;51.336;9.416;2023-09-08T11:11:17;4.07;;;3.78;;
27495;SDS011;14929;51.336;9.416;2023-09-08T11:13:47;3.55;;;3.35;;
27495;SDS011;14929;51.336;9.416;2023-09-08T11:16:14;3.35;;;3.00;;
27495;SDS011;14929;51.336;9.416;2023-09-08T11:18:46;3.45;;;3.15;;
27495;SDS011;14929;51.336;9.416;2023-09-08T11:21:14;3.85;;;3.55;;
27495;SDS011;14929;51.336;9.416;2023-09-08T11:23:41;3.70;;;3.40;;
27495;SDS011;14929;51.336;9.416;2023-09-08T11:26:09;4.10;;;3.80;;
27495;SDS011;14929;51.336;9.416;2023-09-08T11:28:39;3.83;;;3.53;;
27495;SDS011;14929;51.336;9.416;2023-09-08T11:31:09;4.60;;;3.40;;
27495;SDS011;14929;51.336;9.416;2023-09-08T11:33:38;4.28;;;3.97;;
27495;SDS011;14929;51.336;9.416;2023-09-08T11:36:11;3.42;;;3.13;;
27495;SDS011;14929;51.336;9.416;2023-09-08T11:38:41;4.13;;;3.75;;
27495;SDS011;14929;51.336;9.416;2023-09-08T11:41:10;3.35;;;3.15;;
27495;SDS011;14929;51.336;9.416;2023-09-08T11:43:38;3.80;;;3.60;;
27495;SDS011;14929;51.336;9.416;2023-09-08T11:46:05;3.80;;;3.60;;
27495;SDS011;14929;51.336;9.416;2023-09-08T11:48:35;3.58;;;3.33;;
27495;SDS011;14929;51.336;9.416;2023-09-08T11:51:03;3.65;;;3.45;;
27495;SDS011;14929;51.336;9.416;2023-09-08T11:53:34;4.25;;;3.92;;
27495;SDS011;14929;51.336;9.416;2023-09-08T11:56:02;3.28;;;3.08;;
27495;SDS011;14929;51.336;9.416;2023-09-08T11:58:30;3.30;;;3.10;;
27495;SDS011;14929;51.336;9.416;2023-09-08T12:00:58;3.40;;;3.10;;
27495;SDS011;14929;51.336;9.416;2023-09-08T12:03:26;2.97;;;2.78;;
27495;SDS011;14929;51.336;9.416;2023-09-08T12:05:55;3.42;;;3.20;;
27495;SDS011;14929;51.336;9.416;2023-09-08T12:08:24;3.10;;;2.80;;
27495;SDS011;14929;51.336;9.416;2023-09-08T12:10:53;3.70;;;3.50;;
27495;SDS011;14929;51.336;9.416;2023-09-08T12:13:21;3.20;;;3.00;;
27495;SDS011;14929;51.336;9.416;2023-09-08T12:15:50;3.72;;;3.42;;
27495;SDS011;14929;51.336;9.416;2023-09-08T12:18:18;3.70;;;3.40;;
27495;SDS011;14929;51.336;9.416;2023-09-08T12:20:45;3.47;;;3.28;;
27495;SDS011;14929;51.336;9.416;2023-09-08T12:23:18;3.97;;;3.78;;
27495;SDS011;14929;51.336;9.416;2023-09-08T12:25:47;3.85;;;3.55;;
27495;SDS011;14929;51.336;9.416;2023-09-08T12:28:17;4.13;;;3.83;;
27495;SDS011;14929;51.336;9.416;2023-09-08T12:30:46;3.80;;;3.50;;
27495;SDS011;14929;51.336;9.416;2023-09-08T12:33:15;3.50;;;3.30;;
27495;SDS011;14929;51.336;9.416;2023-09-08T12:35:45;3.38;;;3.17;;
27495;SDS011;14929;51.336;9.416;2023-09-08T12:38:13;3.45;;;3.20;;
27495;SDS011;14929;51.336;9.416;2023-09-08T12:40:43;3.10;;;2.90;;
27495;SDS011;14929;51.336;9.416;2023-09-08T12:43:10;3.45;;;3.25;;
27495;SDS011;14929;51.336;9.416;2023-09-08T12:45:38;3.90;;;2.75;;
27495;SDS011;14929;51.336;9.416;2023-09-08T12:48:06;4.78;;;3.17;;
27495;SDS011;14929;51.336;9.416;2023-09-08T12:50:34;2.95;;;2.80;;
27495;SDS011;14929;51.336;9.416;2023-09-08T12:53:01;3.95;;;3.65;;
27495;SDS011;14929;51.336;9.416;2023-09-08T12:55:29;3.38;;;3.10;;
27495;SDS011;14929;51.336;9.416;2023-09-08T12:57:58;3.22;;;3.03;;
27495;SDS011;14929;51.336;9.416;2023-09-08T13:00:25;3.80;;;3.50;;
27495;SDS011;14929;51.336;9.416;2023-09-08T13:02:54;2.92;;;2.72;;
27495;SDS011;14929;51.336;9.416;2023-09-08T13:05:21;3.40;;;3.17;;
27495;SDS011;14929;51.336;9.416;2023-09-08T13:07:49;3.13;;;2.92;;
27495;SDS011;14929;51.336;9.416;2023-09-08T13:10:16;3.33;;;3.13;;
27495;SDS011;14929;51.336;9.416;2023-09-08T13:12:45;4.00;;;3.58;;
27495;SDS011;14929;51.336;9.416;2023-09-08T13:15:15;4.18;;;3.88;;
27495;SDS011;14929;51.336;9.416;2023-09-08T13:17:42;3.35;;;3.05;;
27495;SDS011;14929;51.336;9.416;2023-09-08T13:20:10;5.25;;;3.65;;
27495;SDS011;14929;51.336;9.416;2023-09-08T13:22:38;3.13;;;2.92;;
27495;SDS011;14929;51.336;9.416;2023-09-08T13:25:06;2.92;;;2.72;;
27495;SDS011;14929;51.336;9.416;2023-09-08T13:27:34;3.05;;;2.85;;
27495;SDS011;14929;51.336;9.416;2023-09-08T13:30:08;3.20;;;3.00;;
27495;SDS011;14929;51.336;9.416;2023-09-08T13:32:39;2.88;;;2.67;;
27495;SDS011;14929;51.336;9.416;2023-09-08T13:35:07;3.10;;;2.90;;
27495;SDS011;14929;51.336;9.416;2023-09-08T13:37:35;2.53;;;2.33;;
27495;SDS011;14929;51.336;9.416;2023-09-08T13:40:04;2.67;;;2.47;;
27495;SDS011;14929;51.336;9.416;2023-09-08T13:42:33;5.97;;;3.53;;
27495;SDS011;14929;51.336;9.416;2023-09-08T13:45:00;2.70;;;2.60;;
27495;SDS011;14929;51.336;9.416;2023-09-08T13:47:28;2.92;;;2.53;;
27495;SDS011;14929;51.336;9.416;2023-09-08T13:49:57;3.60;;;3.38;;
27495;SDS011;14929;51.336;9.416;2023-09-08T13:52:25;3.08;;;2.88;;
27495;SDS011;14929;51.336;9.416;2023-09-08T13:54:52;2.85;;;2.53;;
27495;SDS011;14929;51.336;9.416;2023-09-08T13:57:20;3.75;;;3.45;;
27495;SDS011;14929;51.336;9.416;2023-09-08T13:59:50;3.13;;;2.92;;
27495;SDS011;14929;51.336;9.416;2023-09-08T14:02:19;3.55;;;3.10;;
27495;SDS011;14929;51.336;9.416;2023-09-08T14:04:47;3.80;;;3.50;;
27495;SDS011;14929;51.336;9.416;2023-09-08T14:07:15;3.55;;;3.10;;
27495;SDS011;14929;51.336;9.416;2023-09-08T14:09:43;4.40;;;4.10;;
27495;SDS011;14929;51.336;9.416;2023-09-08T14:12:11;2.75;;;2.55;;
27495;SDS011;14929;51.336;9.416;2023-09-08T14:14:39;2.63;;;2.42;;
27495;SDS011;14929;51.336;9.416;2023-09-08T14:17:06;3.88;;;3.58;;
27495;SDS011;14929;51.336;9.416;2023-09-08T14:19:34;3.05;;;2.85;;
27495;SDS011;14929;51.336;9.416;2023-09-08T14:22:01;3.20;;;2.90;;
27495;SDS011;14929;51.336;9.416;2023-09-08T14:24:30;3.90;;;3.60;;
27495;SDS011;14929;51.336;9.416;2023-09-08T14:26:58;4.20;;;3.75;;
27495;SDS011;14929;51.336;9.416;2023-09-08T14:29:25;3.22;;;3.03;;
27495;SDS011;14929;51.336;9.416;2023-09-08T14:31:53;3.28;;;3.08;;
27495;SDS011;14929;51.336;9.416;2023-09-08T14:34:20;3.05;;;2.85;;
27495;SDS011;14929;51.336;9.416;2023-09-08T14:36:48;3.00;;;2.80;;
27495;SDS011;14929;51.336;9.416;2023-09-08T14:39:15;3.63;;;3.03;;
27495;SDS011;14929;51.336;9.416;2023-09-08T14:41:45;3.47;;;3.17;;
27495;SDS011;14929;51.336;9.416;2023-09-08T14:44:15;2.85;;;2.75;;
27495;SDS011;14929;51.336;9.416;2023-09-08T14:46:42;3.88;;;3.25;;
27495;SDS011;14929;51.336;9.416;2023-09-08T14:49:10;3.00;;;2.80;;
27495;SDS011;14929;51.336;9.416;2023-09-08T14:51:39;2.85;;;2.65;;
27495;SDS011;14929;51.336;9.416;2023-09-08T14:54:07;2.50;;;2.30;;
27495;SDS011;14929;51.336;9.416;2023-09-08T14:56:34;2.55;;;2.38;;